Aeroporto :
LOGIN :

Iscrizione | Disclaimer

   EN    FR    IT 

 










Sommario :    VFR   VFR Marginale   IFR   IFR Intensivo   IFR Molto Intensivo
Visibilità : 
Base nubi : 
>= 8 km
>= 3000ft
5 / 8 km
1000 / 3000 ft
1500m / 5 km
500 / 1000 ft
800 / 1500m
200 / 500 ft
< 800m
< 200 ft
Simboli :   Temporali  Nebbia  Neve Forte  Precipitazioni Forti  Vento > 20 kt
SIGMETs :   Varie  Temporali  Ghiacco  Turbolenza  Onda orograficha  Ceneri Vulcaniche






- Altitudine del aeroporto : 288 ft
- Codice IATA : BZZ


EGVN - RAF Brize Norton

ULTIMO METAR :
  • 290420Z 05007KT 3500 HZ OVC006 07/06 Q1024 NOSIG RMK YLO1 YLO1

METARs OBSOLETI :
  • 290350Z 07006KT 3500 HZ OVC006 08/06 Q1024 NOSIG RMK YLO1 YLO1
  • 290320Z 07006KT 3500 HZ OVC007 08/07 Q1024 TEMPO OVC006 RMK YLO1 TEMPO YLO1
  • 290250Z 07006KT 3500 HZ OVC007 08/07 Q1024 TEMPO OVC006
  • 290220Z 06005KT 3500 HZ OVC007 08/07 Q1024 TEMPO OVC006 RMK YLO1 TEMPO YLO1
  • 290150Z 05005KT 3500 HZ OVC005 08/07 Q1024 NOSIG RMK YLO1 YLO1

TAF AMD TAF EGVN
Valido dal 29 a 02 ore il 30 a 00 ore UTC


290227Z 2902/2924 07005KT 2500 BR OVC006
TEMPO 2902/2903 OVC007
PROB40 2903/2912 1200 MIFG OVC002
PROB30 2903/2912 0300 FG BKN001
PROB40 2918/2924 1200 MIFG OVC002



MetMap, La meteo Aeronautica in un colpo d'occhio ! - Copyright ORBIFLY Dicembre 2007 - Disclaimer

ORBIFLY MET'MAP TEAM :

Programmazione e sviluppo : Alexandra Zaïnal
Concezione : Baudouin d'Aumeries
Aiuto per la programmazione : Marc-Olivier Méhu
Supporto tecnico e logistico : Manuel Goepfert
Aiuto per la traduzione : Arnaldo La Scala

Contatto : metmap@orbifly.com




FONTI E CREDITI :

   NOAA